createdAt,value
2022-08-26T00:00:53.787Z,20.70
2022-08-26T00:03:23.690Z,20.70
2022-08-26T00:05:52.873Z,20.70
2022-08-26T00:08:25.305Z,20.70
2022-08-26T00:10:54.282Z,20.70
2022-08-26T00:13:22.721Z,20.60
2022-08-26T00:16:06.673Z,20.60
2022-08-26T00:18:38.657Z,20.50
2022-08-26T00:21:08.786Z,20.40
2022-08-26T00:23:38.584Z,20.40
2022-08-26T00:26:08.314Z,20.40
2022-08-26T00:28:37.226Z,20.40
2022-08-26T00:31:05.973Z,20.30
2022-08-26T00:33:35.528Z,20.30
2022-08-26T00:36:05.267Z,20.30
2022-08-26T00:38:33.955Z,20.30
2022-08-26T00:41:04.424Z,20.30
2022-08-26T00:43:47.388Z,20.20
2022-08-26T00:46:20.769Z,20.20
2022-08-26T00:48:53.710Z,20.10
2022-08-26T00:51:29.727Z,20.10
2022-08-26T00:54:05.354Z,20.00
2022-08-26T00:56:39.168Z,20.00
2022-08-26T00:59:11.442Z,20.00
2022-08-26T01:01:42.615Z,19.90
2022-08-26T01:04:18.610Z,19.90
2022-08-26T01:06:49.101Z,19.90
2022-08-26T01:09:18.847Z,20.00
2022-08-26T01:11:50.679Z,19.90
2022-08-26T01:14:22.304Z,19.90
2022-08-26T01:16:51.211Z,19.80
2022-08-26T01:19:24.718Z,19.80
2022-08-26T01:21:57.502Z,19.80
2022-08-26T01:24:30.992Z,19.80
2022-08-26T01:27:03.541Z,19.80
2022-08-26T01:29:34.935Z,19.80
2022-08-26T01:32:05.674Z,19.70
2022-08-26T01:34:36.241Z,19.70
2022-08-26T01:37:08.550Z,19.60
2022-08-26T01:39:48.149Z,19.60
2022-08-26T01:42:19.069Z,19.60
2022-08-26T01:44:51.723Z,19.60
2022-08-26T01:47:22.767Z,19.60
2022-08-26T01:49:53.971Z,19.60
2022-08-26T01:52:27.648Z,19.60
2022-08-26T01:55:00.247Z,19.50
2022-08-26T01:57:29.856Z,19.50
2022-08-26T02:00:01.674Z,19.50
2022-08-26T02:02:40.848Z,19.50
2022-08-26T02:05:16.964Z,19.50
2022-08-26T02:07:46.000Z,19.50
2022-08-26T02:10:16.460Z,19.50
2022-08-26T02:12:48.262Z,19.50
2022-08-26T02:15:16.742Z,19.60
2022-08-26T02:17:48.013Z,19.50
2022-08-26T02:20:22.230Z,19.50
2022-08-26T02:22:52.044Z,19.50
2022-08-26T02:25:29.326Z,19.50
2022-08-26T02:27:57.879Z,19.40
2022-08-26T02:30:30.052Z,19.40
2022-08-26T02:33:00.056Z,19.40
2022-08-26T02:35:28.621Z,19.50
2022-08-26T02:37:59.248Z,19.50
2022-08-26T02:40:32.596Z,19.40
2022-08-26T02:43:01.270Z,19.40
2022-08-26T02:45:30.426Z,19.40
2022-08-26T02:47:59.605Z,19.40
2022-08-26T02:50:28.925Z,19.30
2022-08-26T02:52:57.359Z,19.30
2022-08-26T02:55:26.402Z,19.30
2022-08-26T02:57:56.194Z,19.30
2022-08-26T03:00:25.325Z,19.20
2022-08-26T03:02:54.530Z,19.20
2022-08-26T03:05:24.077Z,19.20
2022-08-26T03:07:52.834Z,19.10
2022-08-26T03:10:22.724Z,19.10
2022-08-26T03:12:52.182Z,19.10
2022-08-26T03:15:22.258Z,19.00
2022-08-26T03:17:50.787Z,19.00
2022-08-26T03:20:19.480Z,18.90
2022-08-26T03:22:48.232Z,18.90
2022-08-26T03:25:18.314Z,18.90
2022-08-26T03:27:47.317Z,18.80
2022-08-26T03:30:34.558Z,18.80
2022-08-26T03:33:05.025Z,18.80
2022-08-26T03:35:35.150Z,18.70
2022-08-26T03:38:04.905Z,18.70
2022-08-26T03:40:34.005Z,18.60
2022-08-26T03:43:03.275Z,18.60
2022-08-26T03:45:31.879Z,18.50
2022-08-26T03:48:01.805Z,18.50
2022-08-26T03:50:34.417Z,18.50
2022-08-26T03:53:07.418Z,18.50
2022-08-26T03:55:43.210Z,18.50
2022-08-26T03:58:12.539Z,18.50
2022-08-26T04:00:41.310Z,18.60
2022-08-26T04:03:14.749Z,18.50
2022-08-26T04:05:52.497Z,18.50
2022-08-26T04:08:21.031Z,18.50
2022-08-26T04:10:50.407Z,18.50
2022-08-26T04:13:19.691Z,18.50
2022-08-26T04:15:48.244Z,18.50
2022-08-26T04:18:16.973Z,18.60
2022-08-26T04:20:49.339Z,18.80
2022-08-26T04:23:18.502Z,19.10
2022-08-26T04:25:48.810Z,19.40
2022-08-26T04:28:18.107Z,19.70
2022-08-26T04:30:46.953Z,20.00
2022-08-26T04:33:16.128Z,20.20
2022-08-26T04:36:03.479Z,20.40
2022-08-26T04:38:34.593Z,20.80
2022-08-26T04:41:05.597Z,21.20
2022-08-26T04:43:44.297Z,21.40
2022-08-26T04:46:13.583Z,21.80
2022-08-26T04:48:42.394Z,22.00
2022-08-26T04:51:12.391Z,22.40
2022-08-26T04:53:40.898Z,22.90
2022-08-26T04:56:09.438Z,22.90
2022-08-26T04:58:38.814Z,23.40
2022-08-26T05:01:08.343Z,23.70
2022-08-26T05:03:37.440Z,24.00
2022-08-26T05:06:12.410Z,24.40
2022-08-26T05:08:41.142Z,24.50
2022-08-26T05:11:10.663Z,24.90
2022-08-26T05:13:40.515Z,25.20
2022-08-26T05:16:11.811Z,25.20
2022-08-26T05:18:41.617Z,25.40
2022-08-26T05:21:20.286Z,25.70
2022-08-26T05:23:51.407Z,25.80
2022-08-26T05:26:22.957Z,25.80
2022-08-26T05:28:54.904Z,25.80
2022-08-26T05:31:26.382Z,26.00
2022-08-26T05:33:55.622Z,26.10
2022-08-26T05:36:29.316Z,26.30
2022-08-26T05:39:00.049Z,26.50
2022-08-26T05:41:34.371Z,26.60
2022-08-26T05:44:07.605Z,26.90
2022-08-26T05:46:37.875Z,27.10
2022-08-26T05:49:12.646Z,26.90
2022-08-26T05:51:47.731Z,26.90
2022-08-26T05:54:21.758Z,27.40
2022-08-26T05:56:51.279Z,27.50
2022-08-26T05:59:24.242Z,27.60
2022-08-26T06:01:54.851Z,27.40
2022-08-26T06:04:26.764Z,27.70
2022-08-26T06:06:58.249Z,28.10
2022-08-26T06:09:27.415Z,28.50
2022-08-26T06:11:56.116Z,28.80
2022-08-26T06:14:26.000Z,28.70
2022-08-26T06:16:55.059Z,28.50
2022-08-26T06:19:26.370Z,29.00
2022-08-26T06:22:23.862Z,28.80
2022-08-26T06:25:10.118Z,28.50
2022-08-26T06:27:39.400Z,28.90
2022-08-26T06:30:10.031Z,29.20
2022-08-26T06:32:38.923Z,29.80
2022-08-26T06:35:11.862Z,29.70
2022-08-26T06:37:42.968Z,29.30
2022-08-26T06:40:12.561Z,29.60
2022-08-26T06:42:41.129Z,29.90
2022-08-26T06:45:10.294Z,29.90
2022-08-26T06:47:39.663Z,29.80
2022-08-26T06:50:08.813Z,30.20
2022-08-26T06:52:37.336Z,30.50
2022-08-26T06:55:08.339Z,30.30
2022-08-26T06:57:37.719Z,30.90
2022-08-26T07:00:10.493Z,30.70
2022-08-26T07:02:39.717Z,30.30
2022-08-26T07:05:09.512Z,30.20
2022-08-26T07:07:38.304Z,29.70
2022-08-26T07:10:09.624Z,29.60
2022-08-26T07:12:41.793Z,29.10
2022-08-26T07:15:15.617Z,28.70
2022-08-26T07:17:44.294Z,28.50
2022-08-26T07:20:12.981Z,28.40
2022-08-26T07:22:41.462Z,28.00
2022-08-26T07:25:12.547Z,27.80
2022-08-26T07:27:41.047Z,27.70
2022-08-26T07:30:10.535Z,27.40
2022-08-26T07:32:43.544Z,27.70
2022-08-26T07:35:12.025Z,27.20
2022-08-26T07:37:40.705Z,27.40
2022-08-26T07:40:10.578Z,27.30
2022-08-26T07:42:41.827Z,27.20
2022-08-26T07:45:10.713Z,27.10
2022-08-26T07:47:39.154Z,27.20
2022-08-26T07:50:09.617Z,27.50
2022-08-26T07:52:38.752Z,27.60
2022-08-26T07:55:09.898Z,27.50
2022-08-26T07:57:39.916Z,27.50
2022-08-26T08:00:16.221Z,27.30
2022-08-26T08:02:45.760Z,27.30
2022-08-26T08:05:18.316Z,27.30
2022-08-26T08:07:47.317Z,27.00
2022-08-26T08:10:19.174Z,26.90
2022-08-26T08:12:50.646Z,26.90
2022-08-26T08:15:24.296Z,26.70
2022-08-26T08:17:54.052Z,26.90
2022-08-26T08:20:24.491Z,26.70
2022-08-26T08:22:54.847Z,26.70
2022-08-26T08:25:24.081Z,26.70
2022-08-26T08:27:52.554Z,26.70
2022-08-26T08:30:24.521Z,26.40
2022-08-26T08:32:53.644Z,26.10
2022-08-26T08:35:26.485Z,26.20
2022-08-26T08:37:55.580Z,26.40
2022-08-26T08:40:27.622Z,26.50
2022-08-26T08:43:03.940Z,26.50
2022-08-26T08:45:37.651Z,26.50
2022-08-26T08:48:12.095Z,26.50
2022-08-26T08:50:45.816Z,26.80
2022-08-26T08:53:18.113Z,26.70
2022-08-26T08:55:59.460Z,26.90
2022-08-26T08:58:41.197Z,26.80
2022-08-26T09:01:19.698Z,26.90
2022-08-26T09:03:55.562Z,26.90
2022-08-26T09:06:27.625Z,27.00
2022-08-26T09:08:57.713Z,27.20
2022-08-26T09:11:26.165Z,27.30
2022-08-26T09:13:56.096Z,27.40
2022-08-26T09:16:34.125Z,27.50
2022-08-26T09:19:15.136Z,27.40
2022-08-26T09:21:53.309Z,27.60
2022-08-26T09:24:24.424Z,27.70
2022-08-26T09:26:59.200Z,27.80
2022-08-26T09:29:29.842Z,27.70
2022-08-26T09:34:59.246Z,27.80
2022-08-26T09:37:43.170Z,27.90
2022-08-26T09:40:23.196Z,27.80
2022-08-26T09:43:13.514Z,27.90
2022-08-26T09:45:50.630Z,27.90
2022-08-26T09:48:29.803Z,27.90
2022-08-26T09:51:02.640Z,28.10
2022-08-26T09:53:33.358Z,28.20
2022-08-26T09:56:18.953Z,28.30
2022-08-26T09:58:49.495Z,28.10
2022-08-26T10:01:30.195Z,28.30
2022-08-26T10:04:08.148Z,28.40
2022-08-26T10:06:42.825Z,28.40
2022-08-26T10:09:15.119Z,28.50
2022-08-26T10:11:47.606Z,28.70
2022-08-26T10:14:22.221Z,28.90
2022-08-26T10:16:56.125Z,29.00
2022-08-26T10:19:51.625Z,29.20
2022-08-26T10:22:25.844Z,29.30
2022-08-26T10:24:58.633Z,29.20
2022-08-26T10:27:37.405Z,29.20
2022-08-26T10:30:14.660Z,29.30
2022-08-26T10:32:48.156Z,29.40
2022-08-26T10:35:19.401Z,29.60
2022-08-26T10:37:57.692Z,29.60
2022-08-26T10:40:28.652Z,29.60
2022-08-26T10:43:07.053Z,29.80
2022-08-26T10:45:41.147Z,29.90
2022-08-26T10:48:13.135Z,30.00
2022-08-26T10:50:47.407Z,30.10
2022-08-26T10:53:25.134Z,30.10
2022-08-26T10:56:02.604Z,30.10
2022-08-26T10:58:48.518Z,30.10
2022-08-26T11:01:47.026Z,30.00
2022-08-26T11:04:45.751Z,30.10
2022-08-26T11:07:43.011Z,30.20
2022-08-26T11:10:54.397Z,30.30
2022-08-26T11:14:00.123Z,30.30
2022-08-26T11:16:42.886Z,30.50
2022-08-26T11:19:58.773Z,30.40
2022-08-26T11:22:28.683Z,30.40
2022-08-26T11:25:15.878Z,30.30
2022-08-26T11:28:05.401Z,30.40
2022-08-26T11:30:47.733Z,30.50
2022-08-26T11:33:59.089Z,30.60
2022-08-26T11:36:42.049Z,30.70
2022-08-26T11:39:24.278Z,30.80
2022-08-26T11:41:55.579Z,30.70
2022-08-26T11:44:29.222Z,30.60
2022-08-26T11:47:00.566Z,30.70
2022-08-26T11:49:31.591Z,30.70
2022-08-26T11:52:13.347Z,30.70
2022-08-26T11:55:00.481Z,30.90
2022-08-26T11:57:29.638Z,31.00
2022-08-26T11:59:58.518Z,31.00
2022-08-26T12:02:27.963Z,30.90
2022-08-26T12:04:57.552Z,30.90
2022-08-26T12:07:29.091Z,30.70
2022-08-26T12:10:02.244Z,30.70
2022-08-26T12:12:35.202Z,30.70
2022-08-26T12:15:14.097Z,30.80
2022-08-26T12:17:44.004Z,31.00
2022-08-26T12:20:31.490Z,31.10
2022-08-26T12:23:01.207Z,31.00
2022-08-26T12:25:36.001Z,31.00
2022-08-26T12:28:07.303Z,31.00
2022-08-26T12:30:36.100Z,31.00
2022-08-26T12:33:22.885Z,30.90
2022-08-26T12:35:56.511Z,30.80
2022-08-26T12:38:27.843Z,30.80
2022-08-26T12:40:58.138Z,30.80
2022-08-26T12:43:41.788Z,30.80
2022-08-26T12:46:12.981Z,30.90
2022-08-26T12:48:44.390Z,31.00
2022-08-26T12:51:24.115Z,31.00
2022-08-26T12:53:53.131Z,31.00
2022-08-26T12:56:35.317Z,31.00
2022-08-26T12:59:23.294Z,30.90
2022-08-26T13:01:52.508Z,30.80
2022-08-26T13:04:39.795Z,30.80
2022-08-26T13:07:23.149Z,30.70
2022-08-26T13:09:53.245Z,30.70
2022-08-26T13:12:29.007Z,30.70
2022-08-26T13:14:58.877Z,30.70
2022-08-26T13:17:27.901Z,30.80
2022-08-26T13:20:01.297Z,30.80
2022-08-26T13:22:31.987Z,30.80
2022-08-26T13:25:00.545Z,30.70
2022-08-26T13:27:30.693Z,30.70
2022-08-26T13:29:59.943Z,30.70
2022-08-26T13:32:28.957Z,30.70
2022-08-26T13:34:58.861Z,30.70
2022-08-26T13:37:34.538Z,30.70
2022-08-26T13:40:05.953Z,30.70
2022-08-26T13:42:36.233Z,30.80
2022-08-26T13:45:06.375Z,30.80
2022-08-26T13:47:36.156Z,30.70
2022-08-26T13:50:05.824Z,30.70
2022-08-26T13:52:34.415Z,30.70
2022-08-26T13:55:03.925Z,30.50
2022-08-26T13:57:32.539Z,30.40
2022-08-26T14:00:02.406Z,30.40
2022-08-26T14:02:38.063Z,30.40
2022-08-26T14:05:07.565Z,30.40
2022-08-26T14:07:36.229Z,30.40
2022-08-26T14:10:05.315Z,30.40
2022-08-26T14:12:33.850Z,30.30
2022-08-26T14:15:03.728Z,30.30
2022-08-26T14:17:33.008Z,30.30
2022-08-26T14:20:01.583Z,30.30
2022-08-26T14:22:31.445Z,30.40
2022-08-26T14:25:00.149Z,30.40
2022-08-26T14:27:28.712Z,30.40
2022-08-26T14:29:57.250Z,30.40
2022-08-26T14:32:31.739Z,30.40
2022-08-26T14:35:00.587Z,30.30
2022-08-26T14:37:29.312Z,30.40
2022-08-26T14:39:57.962Z,30.40
2022-08-26T14:42:31.470Z,30.40
2022-08-26T14:45:02.980Z,30.40
2022-08-26T14:47:34.015Z,30.30
2022-08-26T14:50:02.737Z,30.30
2022-08-26T14:52:51.293Z,30.20
2022-08-26T14:55:18.784Z,30.20
2022-08-26T14:57:47.270Z,30.30
2022-08-26T15:00:16.645Z,30.20
2022-08-26T15:02:46.809Z,30.20
2022-08-26T15:05:17.639Z,30.20
2022-08-26T15:07:46.349Z,30.20
2022-08-26T15:10:17.142Z,30.10
2022-08-26T15:12:46.115Z,30.10
2022-08-26T15:15:19.188Z,30.10
2022-08-26T15:17:49.468Z,30.10
2022-08-26T15:20:18.107Z,30.00
2022-08-26T15:22:46.763Z,30.00
2022-08-26T15:25:15.798Z,30.00
2022-08-26T15:27:44.832Z,29.90
2022-08-26T15:30:14.151Z,29.90
2022-08-26T15:32:42.745Z,30.00
2022-08-26T15:35:12.789Z,29.90
2022-08-26T15:37:41.600Z,29.90
2022-08-26T15:40:11.616Z,29.80
2022-08-26T15:42:40.651Z,29.80
2022-08-26T15:45:10.118Z,29.80
2022-08-26T15:48:01.299Z,29.80
2022-08-26T15:50:29.725Z,29.70
2022-08-26T15:52:59.751Z,29.70
2022-08-26T15:55:28.535Z,29.60
2022-08-26T15:57:57.234Z,29.70
2022-08-26T16:00:27.219Z,29.60
2022-08-26T16:02:55.882Z,29.50
2022-08-26T16:05:24.829Z,29.50
2022-08-26T16:07:55.174Z,29.50
2022-08-26T16:10:23.998Z,29.50
2022-08-26T16:12:54.021Z,29.40
2022-08-26T16:15:22.659Z,29.40
2022-08-26T16:17:51.250Z,29.30
2022-08-26T16:20:19.982Z,29.20
2022-08-26T16:22:49.046Z,29.20
2022-08-26T16:25:20.337Z,29.10
2022-08-26T16:27:49.382Z,29.10
2022-08-26T16:30:19.503Z,29.00
2022-08-26T16:32:48.754Z,29.00
2022-08-26T16:35:19.320Z,28.90
2022-08-26T16:37:48.021Z,28.80
2022-08-26T16:40:16.769Z,28.80
2022-08-26T16:42:46.780Z,28.70
2022-08-26T16:45:17.870Z,28.50
2022-08-26T16:47:48.239Z,28.50
2022-08-26T16:50:19.235Z,28.50
2022-08-26T16:52:51.621Z,28.40
2022-08-26T16:55:24.613Z,28.40
2022-08-26T16:57:54.561Z,28.30
2022-08-26T17:00:27.853Z,28.20
2022-08-26T17:02:56.723Z,28.10
2022-08-26T17:05:25.844Z,28.10
2022-08-26T17:07:55.196Z,27.90
2022-08-26T17:10:25.398Z,27.80
2022-08-26T17:12:55.631Z,27.70
2022-08-26T17:15:25.537Z,27.60
2022-08-26T17:17:55.490Z,27.60
2022-08-26T17:20:26.181Z,27.50
2022-08-26T17:22:56.931Z,27.50
2022-08-26T17:25:27.396Z,27.40
2022-08-26T17:27:57.659Z,27.30
2022-08-26T17:30:27.067Z,27.20
2022-08-26T17:32:58.468Z,27.10
2022-08-26T17:35:28.485Z,27.00
2022-08-26T17:37:57.460Z,26.90
2022-08-26T17:40:29.333Z,26.80
2022-08-26T17:42:59.972Z,26.70
2022-08-26T17:45:28.809Z,26.60
2022-08-26T17:47:57.713Z,26.50
2022-08-26T17:50:26.688Z,26.50
2022-08-26T17:52:55.779Z,26.40
2022-08-26T17:55:24.788Z,26.20
2022-08-26T17:57:53.956Z,26.20
2022-08-26T18:00:26.913Z,26.20
2022-08-26T18:02:56.176Z,26.20
2022-08-26T18:05:25.152Z,26.00
2022-08-26T18:07:54.012Z,25.90
2022-08-26T18:10:25.711Z,25.80
2022-08-26T18:12:55.218Z,25.80
2022-08-26T18:15:25.734Z,25.80
2022-08-26T18:17:54.435Z,25.70
2022-08-26T18:20:23.069Z,25.70
2022-08-26T18:22:51.735Z,25.70
2022-08-26T18:25:20.494Z,25.70
2022-08-26T18:27:49.038Z,25.60
2022-08-26T18:30:21.010Z,25.50
2022-08-26T18:32:51.934Z,25.40
2022-08-26T18:35:21.548Z,25.30
2022-08-26T18:37:50.101Z,25.30
2022-08-26T18:40:19.642Z,25.20
2022-08-26T18:42:49.362Z,25.20
2022-08-26T18:45:23.251Z,25.20
2022-08-26T18:47:53.433Z,25.10
2022-08-26T18:50:22.356Z,25.00
2022-08-26T18:52:51.092Z,24.90
2022-08-26T18:55:19.822Z,24.80
2022-08-26T18:57:48.371Z,24.70
2022-08-26T19:00:17.595Z,24.60
2022-08-26T19:02:51.710Z,24.50
2022-08-26T19:05:22.045Z,24.50
2022-08-26T19:07:50.597Z,24.40
2022-08-26T19:10:19.159Z,24.30
2022-08-26T19:12:51.794Z,24.30
2022-08-26T19:15:21.055Z,24.30
2022-08-26T19:17:49.610Z,24.20
2022-08-26T19:20:18.287Z,24.10
2022-08-26T19:22:48.129Z,24.00
2022-08-26T19:25:17.608Z,24.00
2022-08-26T19:27:46.062Z,23.90
2022-08-26T19:30:15.211Z,23.90
2022-08-26T19:32:43.706Z,24.00
2022-08-26T19:35:12.281Z,24.00
2022-08-26T19:37:40.827Z,23.90
2022-08-26T19:40:11.685Z,23.90
2022-08-26T19:42:40.317Z,24.00
2022-08-26T19:45:24.514Z,24.00
2022-08-26T19:47:54.150Z,23.90
2022-08-26T19:50:23.076Z,23.90
2022-08-26T19:52:51.628Z,23.90
2022-08-26T19:55:23.633Z,23.80
2022-08-26T19:57:53.228Z,23.80
2022-08-26T20:00:25.838Z,23.70
2022-08-26T20:02:55.628Z,23.70
2022-08-26T20:05:26.068Z,23.60
2022-08-26T20:07:57.416Z,23.60
2022-08-26T20:10:27.701Z,23.60
2022-08-26T20:12:56.580Z,23.50
2022-08-26T20:15:25.351Z,23.50
2022-08-26T20:17:59.594Z,23.40
2022-08-26T20:20:45.227Z,23.40
2022-08-26T20:23:14.085Z,23.40
2022-08-26T20:25:43.937Z,23.40
2022-08-26T20:28:12.638Z,23.40
2022-08-26T20:30:41.463Z,23.40
2022-08-26T20:33:09.969Z,23.40
2022-08-26T20:35:38.551Z,23.50
2022-08-26T20:38:07.103Z,23.50
2022-08-26T20:40:35.723Z,23.50
2022-08-26T20:43:06.361Z,23.50
2022-08-26T20:45:34.967Z,23.50
2022-08-26T20:48:04.106Z,23.50
2022-08-26T20:50:33.275Z,23.40
2022-08-26T20:53:01.794Z,23.40
2022-08-26T20:55:30.365Z,23.40
2022-08-26T20:57:58.837Z,23.30
2022-08-26T21:00:28.902Z,23.30
2022-08-26T21:02:57.833Z,23.20
2022-08-26T21:05:26.488Z,23.20
2022-08-26T21:07:55.013Z,23.20
2022-08-26T21:10:23.501Z,23.10
2022-08-26T21:12:52.252Z,23.10
2022-08-26T21:15:21.282Z,23.10
2022-08-26T21:17:51.351Z,23.00
2022-08-26T21:20:20.847Z,22.90
2022-08-26T21:22:49.460Z,22.90
2022-08-26T21:25:18.200Z,22.70
2022-08-26T21:27:46.694Z,22.60
2022-08-26T21:30:16.643Z,22.50
2022-08-26T21:32:45.162Z,22.40
2022-08-26T21:35:15.095Z,22.30
2022-08-26T21:37:43.633Z,22.30
2022-08-26T21:40:13.084Z,22.20
2022-08-26T21:42:41.700Z,22.20
2022-08-26T21:45:10.971Z,22.10
2022-08-26T21:47:39.810Z,22.10
2022-08-26T21:50:09.556Z,22.10
2022-08-26T21:52:39.600Z,22.10
2022-08-26T21:55:09.311Z,22.00
2022-08-26T21:57:40.980Z,22.10
2022-08-26T22:00:13.953Z,22.10
2022-08-26T22:02:42.560Z,22.10
2022-08-26T22:05:11.611Z,22.00
2022-08-26T22:07:41.556Z,22.00
2022-08-26T22:10:10.579Z,22.00
2022-08-26T22:12:39.056Z,22.00
2022-08-26T22:15:09.089Z,21.90
2022-08-26T22:17:38.004Z,21.90
2022-08-26T22:20:07.529Z,22.00
2022-08-26T22:22:46.663Z,21.90
2022-08-26T22:25:15.324Z,21.90
2022-08-26T22:27:43.867Z,21.90
2022-08-26T22:30:13.045Z,21.90
2022-08-26T22:32:41.694Z,21.80
2022-08-26T22:35:28.415Z,21.70
2022-08-26T22:37:59.758Z,21.60
2022-08-26T22:40:28.474Z,21.60
2022-08-26T22:43:00.227Z,21.50
2022-08-26T22:45:30.101Z,21.40
2022-08-26T22:47:59.046Z,21.30
2022-08-26T22:50:27.781Z,21.20
2022-08-26T22:52:56.307Z,21.10
2022-08-26T22:55:26.750Z,21.00
2022-08-26T22:57:55.501Z,20.90
2022-08-26T23:00:32.097Z,20.80
2022-08-26T23:03:01.846Z,20.70
2022-08-26T23:05:31.104Z,20.70
2022-08-26T23:08:00.053Z,20.70
2022-08-26T23:10:30.106Z,20.60
2022-08-26T23:12:58.722Z,20.60
2022-08-26T23:15:27.620Z,20.50
2022-08-26T23:17:58.782Z,20.50
2022-08-26T23:20:28.910Z,20.40
2022-08-26T23:22:57.860Z,20.50
2022-08-26T23:25:26.912Z,20.50
2022-08-26T23:27:57.678Z,20.50
2022-08-26T23:30:28.113Z,20.40
2022-08-26T23:32:56.778Z,20.40
2022-08-26T23:35:24.943Z,20.30
2022-08-26T23:37:54.212Z,20.30
2022-08-26T23:40:26.685Z,20.20
2022-08-26T23:42:58.225Z,20.10
2022-08-26T23:45:28.163Z,20.10
2022-08-26T23:47:56.798Z,20.00
2022-08-26T23:50:48.088Z,20.00
2022-08-26T23:53:21.928Z,20.00
2022-08-26T23:55:52.591Z,19.90
2022-08-26T23:58:23.133Z,19.90
